createdAt,value
2019-05-05T00:00:15.983Z,0.00
2019-05-05T00:01:16.010Z,0.00
2019-05-05T00:02:16.055Z,0.00
2019-05-05T00:03:16.084Z,0.00
2019-05-05T00:04:16.120Z,0.00
2019-05-05T00:05:16.158Z,0.00
2019-05-05T00:06:16.194Z,0.00
2019-05-05T00:07:16.228Z,0.00
2019-05-05T00:08:16.277Z,0.00
2019-05-05T00:09:16.302Z,0.00
2019-05-05T00:10:16.342Z,0.00
2019-05-05T00:11:16.372Z,0.00
2019-05-05T00:12:16.410Z,0.00
2019-05-05T00:13:16.446Z,0.00
2019-05-05T00:14:16.480Z,0.00
2019-05-05T00:15:16.520Z,0.00
2019-05-05T00:16:16.557Z,0.00
2019-05-05T00:17:16.592Z,0.00
2019-05-05T00:18:16.627Z,0.00
2019-05-05T00:19:29.735Z,0.00
2019-05-05T00:20:16.706Z,0.00
2019-05-05T00:21:16.735Z,0.00
2019-05-05T00:22:16.771Z,0.00
2019-05-05T00:23:16.811Z,0.00
2019-05-05T00:24:16.845Z,0.00
2019-05-05T00:25:16.897Z,0.00
2019-05-05T00:26:16.918Z,0.00
2019-05-05T00:27:16.952Z,0.00
2019-05-05T00:28:16.992Z,0.00
2019-05-05T00:29:17.025Z,0.00
2019-05-05T00:30:17.066Z,0.00
2019-05-05T00:31:17.096Z,0.00
2019-05-05T00:32:17.145Z,0.00
2019-05-05T00:33:17.170Z,0.00
2019-05-05T00:34:17.204Z,0.00
2019-05-05T00:35:17.244Z,0.00
2019-05-05T00:36:17.278Z,0.00
2019-05-05T00:37:17.325Z,0.00
2019-05-05T00:38:17.350Z,0.00
2019-05-05T00:39:17.387Z,0.00
2019-05-05T00:40:17.422Z,0.00
2019-05-05T00:41:17.467Z,0.00
2019-05-05T00:42:17.501Z,0.00
2019-05-05T00:43:17.531Z,0.00
2019-05-05T00:44:17.565Z,0.00
2019-05-05T00:45:17.602Z,0.00
2019-05-05T00:46:17.638Z,0.00
2019-05-05T00:47:17.674Z,0.00
2019-05-05T00:48:17.709Z,0.00
2019-05-05T00:49:17.747Z,0.00
2019-05-05T00:50:17.784Z,0.00
2019-05-05T00:51:17.817Z,0.00
2019-05-05T00:52:17.856Z,0.00
2019-05-05T00:53:17.890Z,0.00
2019-05-05T00:54:17.927Z,0.00
2019-05-05T00:55:17.963Z,0.00
2019-05-05T00:56:17.999Z,0.00
2019-05-05T00:57:18.038Z,0.00
2019-05-05T00:58:18.082Z,0.00
2019-05-05T00:59:18.107Z,0.00
2019-05-05T01:00:18.143Z,0.00
2019-05-05T01:01:18.193Z,0.00
2019-05-05T01:02:18.214Z,0.00
2019-05-05T01:03:18.253Z,0.00
2019-05-05T01:04:18.287Z,0.00
2019-05-05T01:05:18.322Z,0.00
2019-05-05T01:06:18.359Z,0.00
2019-05-05T01:07:18.398Z,0.00
2019-05-05T01:08:18.441Z,0.00
2019-05-05T01:09:18.468Z,0.00
2019-05-05T01:10:18.503Z,0.00
2019-05-05T01:11:18.540Z,0.00
2019-05-05T01:12:18.577Z,0.00
2019-05-05T01:13:18.618Z,0.00
2019-05-05T01:14:18.650Z,0.00
2019-05-05T01:15:18.683Z,0.00
2019-05-05T01:16:18.730Z,0.00
2019-05-05T01:17:18.754Z,0.00
2019-05-05T01:18:18.939Z,0.00
2019-05-05T01:19:18.827Z,0.00
2019-05-05T01:20:18.861Z,0.00
2019-05-05T01:21:18.906Z,0.00
2019-05-05T01:22:18.933Z,0.00
2019-05-05T01:23:18.981Z,0.00
2019-05-05T01:24:19.004Z,0.00
2019-05-05T01:25:19.041Z,0.00
2019-05-05T01:26:19.076Z,0.00
2019-05-05T01:27:19.112Z,0.00
2019-05-05T01:28:19.154Z,0.00
2019-05-05T01:29:19.184Z,0.00
2019-05-05T01:30:19.219Z,0.00
2019-05-05T01:31:19.259Z,0.00
2019-05-05T01:32:19.290Z,0.00
2019-05-05T01:33:19.328Z,0.00
2019-05-05T01:34:19.363Z,0.00
2019-05-05T01:35:19.400Z,0.00
2019-05-05T01:36:19.443Z,0.00
2019-05-05T01:37:19.472Z,0.00
2019-05-05T01:38:19.506Z,0.00
2019-05-05T01:39:19.541Z,0.00
2019-05-05T01:40:19.578Z,0.00
2019-05-05T01:41:19.622Z,0.00
2019-05-05T01:42:19.649Z,0.00
2019-05-05T01:43:19.684Z,0.00
2019-05-05T01:44:19.721Z,0.00
2019-05-05T01:45:19.757Z,0.00
2019-05-05T01:46:19.793Z,0.00
2019-05-05T01:47:19.829Z,0.00
2019-05-05T01:48:19.866Z,0.00
2019-05-05T01:49:19.900Z,0.00
2019-05-05T01:50:21.411Z,0.00
2019-05-05T01:51:19.971Z,0.00
2019-05-05T01:52:20.006Z,0.00
2019-05-05T01:53:20.041Z,0.00
2019-05-05T01:54:20.076Z,0.00
2019-05-05T01:55:20.113Z,0.00
2019-05-05T01:56:20.148Z,0.00
2019-05-05T01:57:20.186Z,0.00
2019-05-05T01:58:20.223Z,0.00
2019-05-05T01:59:20.254Z,0.00
2019-05-05T02:00:20.291Z,0.00
2019-05-05T02:01:20.379Z,0.00
2019-05-05T02:02:20.365Z,0.00
2019-05-05T02:03:20.399Z,0.00
2019-05-05T02:04:20.434Z,0.00
2019-05-05T02:05:20.471Z,0.00
2019-05-05T02:06:20.505Z,0.00
2019-05-05T02:07:20.542Z,0.00
2019-05-05T02:08:20.575Z,0.00
2019-05-05T02:09:20.614Z,0.00
2019-05-05T02:10:20.650Z,0.00
2019-05-05T02:11:20.684Z,0.00
2019-05-05T02:12:20.720Z,0.00
2019-05-05T02:13:20.754Z,0.00
2019-05-05T02:14:20.789Z,0.00
2019-05-05T02:15:20.834Z,0.00
2019-05-05T02:16:20.864Z,0.00
2019-05-05T02:17:20.905Z,0.00
2019-05-05T02:18:20.936Z,0.00
2019-05-05T02:19:20.973Z,0.00
2019-05-05T02:20:28.842Z,0.00
2019-05-05T02:21:21.045Z,0.00
2019-05-05T02:22:21.078Z,0.00
2019-05-05T02:23:21.114Z,0.00
2019-05-05T02:24:21.147Z,0.00
2019-05-05T02:25:21.181Z,0.00
2019-05-05T02:26:21.217Z,0.00
2019-05-05T02:27:21.257Z,0.00
2019-05-05T02:28:21.292Z,0.00
2019-05-05T02:29:21.324Z,0.00
2019-05-05T02:30:21.370Z,0.00
2019-05-05T02:31:21.416Z,0.00
2019-05-05T02:32:21.441Z,0.00
2019-05-05T02:33:21.469Z,0.00
2019-05-05T02:34:21.510Z,0.00
2019-05-05T02:35:21.546Z,0.00
2019-05-05T02:36:21.589Z,0.00
2019-05-05T02:37:21.609Z,0.00
2019-05-05T02:38:21.645Z,0.00
2019-05-05T02:39:21.690Z,0.00
2019-05-05T02:40:24.389Z,0.00
2019-05-05T02:41:21.751Z,0.00
2019-05-05T02:42:24.808Z,0.00
2019-05-05T02:43:24.873Z,0.00
2019-05-05T02:44:21.862Z,0.00
2019-05-05T02:45:24.763Z,0.00
2019-05-05T02:46:25.119Z,0.00
2019-05-05T02:47:21.967Z,0.00
2019-05-05T02:48:24.815Z,0.00
2019-05-05T02:49:22.034Z,0.00
2019-05-05T02:50:24.960Z,0.00
2019-05-05T02:51:25.495Z,0.00
2019-05-05T02:52:24.603Z,0.00
2019-05-05T02:53:22.183Z,0.00
2019-05-05T02:54:22.221Z,0.00
2019-05-05T02:55:23.500Z,0.00
2019-05-05T02:56:23.746Z,0.00
2019-05-05T02:57:24.010Z,0.00
2019-05-05T02:58:24.385Z,0.00
2019-05-05T02:59:23.737Z,0.00
2019-05-05T03:00:24.026Z,0.00
2019-05-05T03:01:24.366Z,0.00
2019-05-05T03:02:23.698Z,0.00
2019-05-05T03:03:23.874Z,0.00
2019-05-05T03:04:24.446Z,0.00
2019-05-05T03:05:23.556Z,0.00
2019-05-05T03:06:23.786Z,0.00
2019-05-05T03:07:22.674Z,0.00
2019-05-05T03:08:24.248Z,0.00
2019-05-05T03:09:24.317Z,0.00
2019-05-05T03:10:24.585Z,0.00
2019-05-05T03:11:23.736Z,0.00
2019-05-05T03:12:24.270Z,0.00
2019-05-05T03:13:24.344Z,0.00
2019-05-05T03:14:23.731Z,0.00
2019-05-05T03:15:24.442Z,0.00
2019-05-05T03:16:23.745Z,0.00
2019-05-05T03:17:23.528Z,0.00
2019-05-05T03:18:24.631Z,0.00
2019-05-05T03:19:23.582Z,0.00
2019-05-05T03:20:23.709Z,0.00
2019-05-05T03:21:24.256Z,0.00
2019-05-05T03:22:23.808Z,0.00
2019-05-05T03:23:24.051Z,0.00
2019-05-05T03:24:23.650Z,0.00
2019-05-05T03:25:24.191Z,0.00
2019-05-05T03:26:23.467Z,0.00
2019-05-05T03:27:23.814Z,0.00
2019-05-05T03:28:24.082Z,0.00
2019-05-05T03:29:24.353Z,0.00
2019-05-05T03:30:26.109Z,0.00
2019-05-05T03:31:26.340Z,0.00
2019-05-05T03:32:25.544Z,0.00
2019-05-05T03:33:25.028Z,0.00
2019-05-05T03:34:24.080Z,0.00
2019-05-05T03:35:24.208Z,0.00
2019-05-05T03:36:24.477Z,0.00
2019-05-05T03:37:25.035Z,0.00
2019-05-05T03:38:24.792Z,0.00
2019-05-05T03:39:23.817Z,0.00
2019-05-05T03:40:23.970Z,0.00
2019-05-05T03:41:23.958Z,0.00
2019-05-05T03:42:24.573Z,0.00
2019-05-05T03:43:23.954Z,0.00
2019-05-05T03:44:24.175Z,5.63
2019-05-05T03:45:24.020Z,5.63
2019-05-05T03:46:24.063Z,5.63
2019-05-05T03:47:24.174Z,5.63
2019-05-05T03:48:24.222Z,5.63
2019-05-05T03:49:24.419Z,5.63
2019-05-05T03:50:24.200Z,5.63
2019-05-05T03:51:24.383Z,5.63
2019-05-05T03:52:24.570Z,5.63
2019-05-05T03:53:24.694Z,11.25
2019-05-05T03:54:24.339Z,11.25
2019-05-05T03:55:24.376Z,11.25
2019-05-05T03:56:24.412Z,11.25
2019-05-05T03:57:24.725Z,11.25
2019-05-05T03:58:24.482Z,11.25
2019-05-05T03:59:24.517Z,11.25
2019-05-05T04:00:24.554Z,16.88
2019-05-05T04:01:24.595Z,16.88
2019-05-05T04:02:24.632Z,16.88
2019-05-05T04:03:24.667Z,16.88
2019-05-05T04:04:24.764Z,16.88
2019-05-05T04:05:24.730Z,22.50
2019-05-05T04:06:24.769Z,22.50
2019-05-05T04:07:24.804Z,22.50
2019-05-05T04:08:24.888Z,22.50
2019-05-05T04:09:24.873Z,22.50
2019-05-05T04:10:24.907Z,28.13
2019-05-05T04:11:24.942Z,28.13
2019-05-05T04:12:24.978Z,28.13
2019-05-05T04:13:25.013Z,28.13
2019-05-05T04:14:25.240Z,28.13
2019-05-05T04:15:25.093Z,33.75
2019-05-05T04:16:25.120Z,33.75
2019-05-05T04:17:25.162Z,33.75
2019-05-05T04:18:25.192Z,33.75
2019-05-05T04:19:25.227Z,33.75
2019-05-05T04:20:25.265Z,39.38
2019-05-05T04:21:33.463Z,39.38
2019-05-05T04:22:25.334Z,39.38
2019-05-05T04:23:25.377Z,39.38
2019-05-05T04:24:25.407Z,39.38
2019-05-05T04:25:25.443Z,45.00
2019-05-05T04:26:25.476Z,45.00
2019-05-05T04:27:25.514Z,45.00
2019-05-05T04:28:25.550Z,45.00
2019-05-05T04:29:25.583Z,45.00
2019-05-05T04:30:25.623Z,50.63
2019-05-05T04:31:25.654Z,50.63
2019-05-05T04:32:25.692Z,50.63
2019-05-05T04:33:25.726Z,50.63
2019-05-05T04:34:25.761Z,50.63
2019-05-05T04:35:25.795Z,56.25
2019-05-05T04:36:25.833Z,56.25
2019-05-05T04:37:25.867Z,56.25
2019-05-05T04:38:25.903Z,56.25
2019-05-05T04:39:25.937Z,56.25
2019-05-05T04:40:25.973Z,61.88
2019-05-05T04:41:26.009Z,61.88
2019-05-05T04:42:26.051Z,61.88
2019-05-05T04:43:26.082Z,61.88
2019-05-05T04:44:26.115Z,61.88
2019-05-05T04:45:26.150Z,67.50
2019-05-05T04:46:26.185Z,67.50
2019-05-05T04:47:26.221Z,67.50
2019-05-05T04:48:26.256Z,67.50
2019-05-05T04:49:26.295Z,67.50
2019-05-05T04:50:26.332Z,67.50
2019-05-05T04:51:26.363Z,67.50
2019-05-05T04:52:26.400Z,73.13
2019-05-05T04:53:26.437Z,73.13
2019-05-05T04:54:26.470Z,73.13
2019-05-05T04:55:26.505Z,73.13
2019-05-05T04:56:26.541Z,73.13
2019-05-05T04:57:26.585Z,78.75
2019-05-05T04:58:26.627Z,78.75
2019-05-05T04:59:26.648Z,78.75
2019-05-05T05:00:26.683Z,78.75
2019-05-05T05:01:26.723Z,78.75
2019-05-05T05:02:26.757Z,78.75
2019-05-05T05:03:26.792Z,84.38
2019-05-05T05:04:26.838Z,84.38
2019-05-05T05:05:26.864Z,84.38
2019-05-05T05:06:26.898Z,84.38
2019-05-05T05:07:26.992Z,84.38
2019-05-05T05:08:26.971Z,84.38
2019-05-05T05:09:27.008Z,84.38
2019-05-05T05:10:27.042Z,90.00
2019-05-05T05:11:27.077Z,90.00
2019-05-05T05:12:27.114Z,90.00
2019-05-05T05:13:27.158Z,90.00
2019-05-05T05:14:27.283Z,90.00
2019-05-05T05:15:27.222Z,90.00
2019-05-05T05:16:27.257Z,95.63
2019-05-05T05:17:27.291Z,95.63
2019-05-05T05:18:27.326Z,95.63
2019-05-05T05:19:27.362Z,95.63
2019-05-05T05:20:27.399Z,95.63
2019-05-05T05:21:27.441Z,95.63
2019-05-05T05:22:27.471Z,101.25
2019-05-05T05:23:29.620Z,101.25
2019-05-05T05:24:27.544Z,101.25
2019-05-05T05:25:27.580Z,101.25
2019-05-05T05:26:27.615Z,101.25
2019-05-05T05:27:27.649Z,101.25
2019-05-05T05:28:27.688Z,101.25
2019-05-05T05:29:27.722Z,101.25
2019-05-05T05:30:27.761Z,101.25
2019-05-05T05:31:27.792Z,101.25
2019-05-05T05:32:27.827Z,101.25
2019-05-05T05:33:27.867Z,101.25
2019-05-05T05:34:27.901Z,101.25
2019-05-05T05:35:27.937Z,101.25
2019-05-05T05:36:27.972Z,101.25
2019-05-05T05:37:28.011Z,101.25
2019-05-05T05:38:28.046Z,101.25
2019-05-05T05:39:28.091Z,101.25
2019-05-05T05:40:28.117Z,101.25
2019-05-05T05:41:28.160Z,101.25
2019-05-05T05:42:28.193Z,106.88
2019-05-05T05:43:28.225Z,106.88
2019-05-05T05:44:28.262Z,106.88
2019-05-05T05:45:28.299Z,106.88
2019-05-05T05:46:28.334Z,106.88
2019-05-05T05:47:28.369Z,106.88
2019-05-05T05:48:28.404Z,106.88
2019-05-05T05:49:28.442Z,112.50
2019-05-05T05:50:28.477Z,106.88
2019-05-05T05:51:28.514Z,112.50
2019-05-05T05:52:28.551Z,112.50
2019-05-05T05:53:28.587Z,112.50
2019-05-05T05:54:28.621Z,112.50
2019-05-05T05:55:28.658Z,112.50
2019-05-05T05:56:28.695Z,112.50
2019-05-05T05:57:28.733Z,112.50
2019-05-05T05:58:28.768Z,112.50
2019-05-05T05:59:28.803Z,112.50
2019-05-05T06:00:28.840Z,112.50
2019-05-05T06:01:28.879Z,112.50
2019-05-05T06:02:28.912Z,112.50
2019-05-05T06:03:28.949Z,112.50
2019-05-05T06:04:28.985Z,112.50
2019-05-05T06:05:29.023Z,112.50
2019-05-05T06:06:29.058Z,118.13
2019-05-05T06:07:29.097Z,118.13
2019-05-05T06:08:30.049Z,118.13
2019-05-05T06:09:29.168Z,118.13
2019-05-05T06:10:29.205Z,118.13
2019-05-05T06:11:29.245Z,118.13
2019-05-05T06:12:29.277Z,118.13
2019-05-05T06:13:29.317Z,118.13
2019-05-05T06:14:29.350Z,118.13
2019-05-05T06:15:29.405Z,118.13
2019-05-05T06:16:29.428Z,118.13
2019-05-05T06:17:29.461Z,118.13
2019-05-05T06:18:29.507Z,118.13
2019-05-05T06:19:29.543Z,123.75
2019-05-05T06:20:29.580Z,123.75
2019-05-05T06:21:29.607Z,123.75
2019-05-05T06:22:31.546Z,123.75
2019-05-05T06:23:29.680Z,123.75
2019-05-05T06:24:29.719Z,123.75
2019-05-05T06:25:29.760Z,123.75
2019-05-05T06:26:29.792Z,123.75
2019-05-05T06:27:29.828Z,123.75
2019-05-05T06:28:29.865Z,123.75
2019-05-05T06:29:29.911Z,123.75
2019-05-05T06:30:29.941Z,123.75
2019-05-05T06:31:29.975Z,123.75
2019-05-05T06:32:30.015Z,123.75
2019-05-05T06:33:30.051Z,123.75
2019-05-05T06:34:30.088Z,123.75
2019-05-05T06:35:30.128Z,123.75
2019-05-05T06:36:30.164Z,123.75
2019-05-05T06:37:30.252Z,123.75
2019-05-05T06:38:30.236Z,123.75
2019-05-05T06:39:30.271Z,123.75
2019-05-05T06:40:30.319Z,123.75
2019-05-05T06:41:30.346Z,123.75
2019-05-05T06:42:30.391Z,123.75
2019-05-05T06:43:30.431Z,123.75
2019-05-05T06:44:30.468Z,123.75
2019-05-05T06:45:30.496Z,123.75
2019-05-05T06:46:30.539Z,123.75
2019-05-05T06:47:30.572Z,123.75
2019-05-05T06:48:30.617Z,123.75
2019-05-05T06:49:31.363Z,123.75
2019-05-05T06:50:30.688Z,123.75
2019-05-05T06:51:30.722Z,123.75
2019-05-05T06:52:43.369Z,123.75
2019-05-05T06:53:30.793Z,123.75
2019-05-05T06:54:30.830Z,123.75
2019-05-05T06:55:30.868Z,123.75
2019-05-05T06:56:30.917Z,123.75
2019-05-05T06:57:30.942Z,123.75
2019-05-05T06:58:30.979Z,123.75
2019-05-05T06:59:31.023Z,123.75
2019-05-05T07:00:31.054Z,123.75
2019-05-05T07:01:31.092Z,123.75
2019-05-05T07:02:31.130Z,123.75
2019-05-05T07:03:31.168Z,123.75
2019-05-05T07:04:31.203Z,123.75
2019-05-05T07:05:31.249Z,123.75
2019-05-05T07:06:31.292Z,123.75
2019-05-05T07:07:31.318Z,123.75
2019-05-05T07:08:31.354Z,129.38
2019-05-05T07:09:33.472Z,129.38
2019-05-05T07:10:31.429Z,123.75
2019-05-05T07:11:31.467Z,123.75
2019-05-05T07:12:31.505Z,123.75
2019-05-05T07:13:33.758Z,129.38
2019-05-05T07:14:33.856Z,129.38
2019-05-05T07:15:31.624Z,129.38
2019-05-05T07:16:31.656Z,129.38
2019-05-05T07:17:33.683Z,129.38
2019-05-05T07:18:33.922Z,129.38
2019-05-05T07:19:31.769Z,129.38
2019-05-05T07:20:31.809Z,129.38
2019-05-05T07:21:34.146Z,129.38
2019-05-05T07:22:31.889Z,129.38
2019-05-05T07:23:33.887Z,129.38
2019-05-05T07:24:34.247Z,129.38
2019-05-05T07:25:42.149Z,129.38
2019-05-05T07:26:33.997Z,140.63
2019-05-05T07:27:33.781Z,129.38
2019-05-05T07:28:34.021Z,129.38
2019-05-05T07:29:34.137Z,135.00
2019-05-05T07:30:33.577Z,135.00
2019-05-05T07:31:34.160Z,140.63
2019-05-05T07:32:33.844Z,146.25
2019-05-05T07:33:34.386Z,140.63
2019-05-05T07:34:33.502Z,135.00
2019-05-05T07:35:34.363Z,135.00
2019-05-05T07:36:34.057Z,135.00
2019-05-05T07:37:34.379Z,135.00
2019-05-05T07:38:33.790Z,146.25
2019-05-05T07:39:34.069Z,151.88
2019-05-05T07:40:34.517Z,151.88
2019-05-05T07:41:34.097Z,157.50
2019-05-05T07:42:33.516Z,151.88
2019-05-05T07:43:34.492Z,151.88
2019-05-05T07:44:33.933Z,151.88
2019-05-05T07:45:34.289Z,151.88
2019-05-05T07:46:34.599Z,151.88
2019-05-05T07:47:34.235Z,157.50
2019-05-05T07:48:33.575Z,163.13
2019-05-05T07:49:33.582Z,163.13
2019-05-05T07:50:35.701Z,157.50
2019-05-05T07:51:33.571Z,168.75
2019-05-05T07:52:34.362Z,163.13
2019-05-05T07:53:33.614Z,163.13
2019-05-05T07:54:34.209Z,140.63
2019-05-05T07:55:34.311Z,151.88
2019-05-05T07:56:34.347Z,151.88
2019-05-05T07:57:34.179Z,163.13
2019-05-05T07:58:34.523Z,174.38
2019-05-05T07:59:34.073Z,191.25
2019-05-05T08:00:34.273Z,196.88
2019-05-05T08:01:33.847Z,202.50
2019-05-05T08:02:34.019Z,213.75
2019-05-05T08:03:33.941Z,225.00
2019-05-05T08:04:34.681Z,208.13
2019-05-05T08:05:33.667Z,230.63
2019-05-05T08:06:34.056Z,258.75
2019-05-05T08:07:34.112Z,213.75
2019-05-05T08:08:33.645Z,191.25
2019-05-05T08:09:33.911Z,168.75
2019-05-05T08:10:34.373Z,174.38
2019-05-05T08:11:34.385Z,168.75
2019-05-05T08:12:34.231Z,180.00
2019-05-05T08:13:33.828Z,180.00
2019-05-05T08:14:33.966Z,168.75
2019-05-05T08:15:34.428Z,191.25
2019-05-05T08:16:33.947Z,208.13
2019-05-05T08:17:34.195Z,241.88
2019-05-05T08:18:34.611Z,264.38
2019-05-05T08:19:34.776Z,270.00
2019-05-05T08:20:34.108Z,286.88
2019-05-05T08:21:34.706Z,326.25
2019-05-05T08:22:34.176Z,337.50
2019-05-05T08:23:35.487Z,343.13
2019-05-05T08:24:34.254Z,337.50
2019-05-05T08:25:39.879Z,326.25
2019-05-05T08:26:34.377Z,298.13
2019-05-05T08:27:34.370Z,253.13
2019-05-05T08:28:34.511Z,219.38
2019-05-05T08:29:34.711Z,196.88
2019-05-05T08:30:34.487Z,185.63
2019-05-05T08:31:34.527Z,191.25
2019-05-05T08:32:35.647Z,202.50
2019-05-05T08:33:34.614Z,208.13
2019-05-05T08:34:34.668Z,202.50
2019-05-05T08:35:34.683Z,202.50
2019-05-05T08:36:34.731Z,202.50
2019-05-05T08:37:34.762Z,208.13
2019-05-05T08:38:34.905Z,219.38
2019-05-05T08:39:34.848Z,225.00
2019-05-05T08:40:34.883Z,241.88
2019-05-05T08:41:34.923Z,264.38
2019-05-05T08:42:34.958Z,281.25
2019-05-05T08:43:34.996Z,298.13
2019-05-05T08:44:35.053Z,292.50
2019-05-05T08:45:35.267Z,281.25
2019-05-05T08:46:35.116Z,253.13
2019-05-05T08:47:35.171Z,230.63
2019-05-05T08:48:35.196Z,208.13
2019-05-05T08:49:35.244Z,185.63
2019-05-05T08:50:35.273Z,174.38
2019-05-05T08:51:35.314Z,163.13
2019-05-05T08:52:35.357Z,168.75
2019-05-05T08:53:44.903Z,174.38
2019-05-05T08:54:35.435Z,180.00
2019-05-05T08:55:35.471Z,185.63
2019-05-05T08:56:35.519Z,191.25
2019-05-05T08:57:35.558Z,196.88
2019-05-05T08:58:35.588Z,202.50
2019-05-05T08:59:35.631Z,213.75
2019-05-05T09:00:35.665Z,225.00
2019-05-05T09:01:35.708Z,247.50
2019-05-05T09:02:36.154Z,258.75
2019-05-05T09:03:35.785Z,275.63
2019-05-05T09:04:35.825Z,292.50
2019-05-05T09:05:35.863Z,326.25
2019-05-05T09:06:37.764Z,326.25
2019-05-05T09:07:35.944Z,309.38
2019-05-05T09:08:35.982Z,264.38
2019-05-05T09:09:36.022Z,236.25
2019-05-05T09:10:36.071Z,196.88
2019-05-05T09:11:36.106Z,180.00
2019-05-05T09:12:36.141Z,174.38
2019-05-05T09:13:36.183Z,180.00
2019-05-05T09:14:36.221Z,180.00
2019-05-05T09:15:37.691Z,191.25
2019-05-05T09:16:36.302Z,208.13
2019-05-05T09:17:36.340Z,230.63
2019-05-05T09:18:36.388Z,241.88
2019-05-05T09:19:36.420Z,264.38
2019-05-05T09:20:36.458Z,286.88
2019-05-05T09:21:36.501Z,315.00
2019-05-05T09:22:36.540Z,331.88
2019-05-05T09:23:36.578Z,365.63
2019-05-05T09:24:36.620Z,393.75
2019-05-05T09:25:36.660Z,410.63
2019-05-05T09:26:36.698Z,371.25
2019-05-05T09:27:36.739Z,320.63
2019-05-05T09:28:36.786Z,292.50
2019-05-05T09:29:36.825Z,286.88
2019-05-05T09:30:36.864Z,270.00
2019-05-05T09:31:36.898Z,258.75
2019-05-05T09:32:36.938Z,241.88
2019-05-05T09:33:36.986Z,247.50
2019-05-05T09:34:37.027Z,253.13
2019-05-05T09:35:37.060Z,258.75
2019-05-05T09:36:37.102Z,264.38
2019-05-05T09:37:37.151Z,270.00
2019-05-05T09:38:37.182Z,275.63
2019-05-05T09:39:37.221Z,275.63
2019-05-05T09:40:37.263Z,275.63
2019-05-05T09:41:37.302Z,286.88
2019-05-05T09:42:37.343Z,281.25
2019-05-05T09:43:37.386Z,281.25
2019-05-05T09:44:37.431Z,286.88
2019-05-05T09:45:37.463Z,303.75
2019-05-05T09:46:39.615Z,326.25
2019-05-05T09:47:37.556Z,360.00
2019-05-05T09:48:37.587Z,393.75
2019-05-05T09:49:37.641Z,427.50
2019-05-05T09:50:37.670Z,444.38
2019-05-05T09:51:37.717Z,438.75
2019-05-05T09:52:37.757Z,354.38
2019-05-05T09:53:37.790Z,292.50
2019-05-05T09:54:37.831Z,241.88
2019-05-05T09:55:37.874Z,213.75
2019-05-05T09:56:37.912Z,185.63
2019-05-05T09:57:37.952Z,180.00
2019-05-05T09:58:37.991Z,168.75
2019-05-05T09:59:40.228Z,168.75
2019-05-05T10:00:38.090Z,174.38
2019-05-05T10:01:38.119Z,180.00
2019-05-05T10:02:38.310Z,191.25
2019-05-05T10:03:38.198Z,208.13
2019-05-05T10:04:38.241Z,219.38
2019-05-05T10:05:38.289Z,230.63
2019-05-05T10:06:38.321Z,247.50
2019-05-05T10:07:38.371Z,253.13
2019-05-05T10:08:38.405Z,270.00
2019-05-05T10:09:38.454Z,281.25
2019-05-05T10:10:38.486Z,292.50
2019-05-05T10:11:38.528Z,315.00
2019-05-05T10:12:38.567Z,337.50
2019-05-05T10:13:38.617Z,360.00
2019-05-05T10:14:38.655Z,393.75
2019-05-05T10:15:38.691Z,421.88
2019-05-05T10:16:38.735Z,438.75
2019-05-05T10:17:38.774Z,450.00
2019-05-05T10:18:38.815Z,438.75
2019-05-05T10:19:38.857Z,421.88
2019-05-05T10:20:38.897Z,421.88
2019-05-05T10:21:38.945Z,388.13
2019-05-05T10:22:38.981Z,360.00
2019-05-05T10:23:39.024Z,354.38
2019-05-05T10:24:39.066Z,354.38
2019-05-05T10:25:39.106Z,365.63
2019-05-05T10:26:39.151Z,371.25
2019-05-05T10:27:44.867Z,388.13
2019-05-05T10:28:39.246Z,416.25
2019-05-05T10:29:39.269Z,438.75
2019-05-05T10:30:39.311Z,461.25
2019-05-05T10:31:39.352Z,483.75
2019-05-05T10:32:39.394Z,517.50
2019-05-05T10:33:39.436Z,500.63
2019-05-05T10:34:39.476Z,455.63
2019-05-05T10:35:39.525Z,416.25
2019-05-05T10:36:39.560Z,405.00
2019-05-05T10:37:39.604Z,388.13
2019-05-05T10:38:39.644Z,376.88
2019-05-05T10:39:39.689Z,382.50
2019-05-05T10:40:39.728Z,399.38
2019-05-05T10:41:39.770Z,416.25
2019-05-05T10:42:39.819Z,421.88
2019-05-05T10:43:39.855Z,438.75
2019-05-05T10:44:39.897Z,444.38
2019-05-05T10:45:39.938Z,438.75
2019-05-05T10:46:39.981Z,438.75
2019-05-05T10:47:40.025Z,444.38
2019-05-05T10:48:40.077Z,444.38
2019-05-05T10:49:40.123Z,466.88
2019-05-05T10:50:40.148Z,483.75
2019-05-05T10:51:40.190Z,483.75
2019-05-05T10:52:40.240Z,483.75
2019-05-05T10:53:40.282Z,478.13
2019-05-05T10:54:44.396Z,483.75
2019-05-05T10:55:40.358Z,483.75
2019-05-05T10:56:40.402Z,478.13
2019-05-05T10:57:40.451Z,472.50
2019-05-05T10:58:40.483Z,455.63
2019-05-05T10:59:40.536Z,455.63
2019-05-05T11:00:40.579Z,450.00
2019-05-05T11:01:40.613Z,427.50
2019-05-05T11:02:40.654Z,405.00
2019-05-05T11:03:40.696Z,405.00
2019-05-05T11:04:40.738Z,405.00
2019-05-05T11:05:40.783Z,410.63
2019-05-05T11:06:40.830Z,399.38
2019-05-05T11:07:40.865Z,382.50
2019-05-05T11:08:40.908Z,382.50
2019-05-05T11:09:40.954Z,388.13
2019-05-05T11:10:40.991Z,410.63
2019-05-05T11:11:41.032Z,438.75
2019-05-05T11:12:41.092Z,461.25
2019-05-05T11:13:42.914Z,472.50
2019-05-05T11:14:41.167Z,500.63
2019-05-05T11:15:41.201Z,528.75
2019-05-05T11:16:41.246Z,540.00
2019-05-05T11:17:41.295Z,551.25
2019-05-05T11:18:41.329Z,556.88
2019-05-05T11:19:41.376Z,562.50
2019-05-05T11:20:41.423Z,562.50
2019-05-05T11:21:43.461Z,568.13
2019-05-05T11:22:43.705Z,551.25
2019-05-05T11:23:41.541Z,540.00
2019-05-05T11:24:55.261Z,528.75
2019-05-05T11:25:41.626Z,523.13
2019-05-05T11:26:41.686Z,517.50
2019-05-05T11:27:43.837Z,506.25
2019-05-05T11:28:41.762Z,500.63
2019-05-05T11:29:43.698Z,483.75
2019-05-05T11:30:41.839Z,466.88
2019-05-05T11:31:41.882Z,461.25
2019-05-05T11:32:44.018Z,450.00
2019-05-05T11:33:43.716Z,438.75
2019-05-05T11:34:44.172Z,450.00
2019-05-05T11:35:42.052Z,466.88
2019-05-05T11:36:43.844Z,495.00
2019-05-05T11:37:43.796Z,517.50
2019-05-05T11:38:44.398Z,528.75
2019-05-05T11:39:44.409Z,540.00
2019-05-05T11:40:43.955Z,540.00
2019-05-05T11:41:44.027Z,523.13
2019-05-05T11:42:42.354Z,483.75
2019-05-05T11:43:42.393Z,450.00
2019-05-05T11:44:42.436Z,410.63
2019-05-05T11:45:43.847Z,371.25
2019-05-05T11:46:44.263Z,343.13
2019-05-05T11:47:44.374Z,309.38
2019-05-05T11:48:43.928Z,281.25
2019-05-05T11:49:44.156Z,253.13
2019-05-05T11:50:43.615Z,225.00
2019-05-05T11:51:43.707Z,208.13
2019-05-05T11:52:44.419Z,185.63
2019-05-05T11:53:44.687Z,163.13
2019-05-05T11:54:43.864Z,151.88
2019-05-05T11:55:44.268Z,140.63
2019-05-05T11:56:44.662Z,129.38
2019-05-05T11:57:43.793Z,129.38
2019-05-05T11:58:44.219Z,123.75
2019-05-05T11:59:43.072Z,123.75
2019-05-05T12:00:43.898Z,123.75
2019-05-05T12:01:44.050Z,129.38
2019-05-05T12:02:43.946Z,135.00
2019-05-05T12:03:44.400Z,140.63
2019-05-05T12:04:43.282Z,146.25
2019-05-05T12:05:44.241Z,151.88
2019-05-05T12:06:44.295Z,168.75
2019-05-05T12:07:43.756Z,185.63
2019-05-05T12:08:45.786Z,213.75
2019-05-05T12:09:44.431Z,236.25
2019-05-05T12:10:43.960Z,264.38
2019-05-05T12:11:43.890Z,286.88
2019-05-05T12:12:44.147Z,320.63
2019-05-05T12:13:43.952Z,360.00
2019-05-05T12:14:43.700Z,393.75
2019-05-05T12:15:44.635Z,433.13
2019-05-05T12:16:43.966Z,461.25
2019-05-05T12:17:44.295Z,472.50
2019-05-05T12:18:44.891Z,472.50
2019-05-05T12:19:43.923Z,450.00
2019-05-05T12:20:44.186Z,433.13
2019-05-05T12:21:44.261Z,405.00
2019-05-05T12:22:44.757Z,371.25
2019-05-05T12:23:44.591Z,343.13
2019-05-05T12:24:44.348Z,331.88
2019-05-05T12:25:44.159Z,331.88
2019-05-05T12:26:44.211Z,348.75
2019-05-05T12:27:44.258Z,337.50
2019-05-05T12:28:44.299Z,343.13
2019-05-05T12:29:44.335Z,354.38
2019-05-05T12:30:44.486Z,371.25
2019-05-05T12:31:44.477Z,376.88
2019-05-05T12:32:44.453Z,405.00
2019-05-05T12:33:44.495Z,433.13
2019-05-05T12:34:44.689Z,466.88
2019-05-05T12:35:44.652Z,472.50
2019-05-05T12:36:44.639Z,450.00
2019-05-05T12:37:44.663Z,416.25
2019-05-05T12:38:44.704Z,388.13
2019-05-05T12:39:44.847Z,371.25
2019-05-05T12:40:44.798Z,365.63
2019-05-05T12:41:44.841Z,348.75
2019-05-05T12:42:44.880Z,315.00
2019-05-05T12:43:44.917Z,292.50
2019-05-05T12:44:44.960Z,270.00
2019-05-05T12:45:45.010Z,258.75